Main page
METAR-TAF:

METAR-TAF

Airports :

Tiree Airport

Tiree, Scotland

latitude: 56-30N, longitude: 006-53W, elevation: 12 m

Current weather observation

The report was made 42 minutes ago, at 15:50 UTC
Wind 24 kt from the South
Temperature 8°C
Humidity 93%
Pressure 1003 hPa
Visibility 10 km or more

METAR: EGPU 251550Z AUTO 19024KT 9999 OVC017/// 08/07 Q1003

Time: 16:32 (16:32 UTC)

Forecast

The report was made 2 hours and 36 minutes ago, at 13:56 UTC
Forecast valid from 25 at 15 UTC to 25 at 19 UTC
Wind 23 kt from the South
Visibility 10 km or more
Broken clouds at a height of 2000 ft
Temporary
from 25 at 15 UTC to 25 at 19 UTC
Wind 26 kt from the South/Southwest with gusts up to 36 kt
Broken clouds at a height of 1200 ft
Probability 30% :
Temporary
from 25 at 15 UTC to 25 at 19 UTC
Visibility: 7000 m
light drizzle

TAF: EGPU 251356Z 2515/2519 19023KT 9999 BKN020 TEMPO 2515/2519 20026G36KT BKN012 PROB30 TEMPO 2515/2519 7000 -DZ

Weather observations and forecasts of more than 4000 airports (METAR and TAF reports).

The available stations are represented by yellow and red dots on the map.

Hover mouse over dot to see the name of the station.

Then click to see weather observations and forecasts.

To change the map : click on the green buttons with a black cross to zoom in, on the green button with a dash to zoom out, or on the green arrows for adjacent maps.


METAR-TAF: